Hermes Quijada International Airport
SAWE : now visible

Airfield :











YOU CAN JOIN US ON...

 
LOGIN :

Register | Disclaimer

   EN    FR    IT 

 









Legend :    VFR   Marginal VFR   IFR   Intensive IFR   Very Intensive IFR
Visi :
Ceiling :
>= 8 km
>= 3000ft
5 to 8 km
1000 to 3000 ft
1500m to 5 km
500 to 1000 ft
800 to 1500m
200 to 500 ft
< 800m
< 200 ft
Symbols :   Thunderstorms  Fog  Heavy snow  Heavy precipitations  Wind > 20 kt






- Airport Elevation : 65 ft
- IATA code : RGA


SAWE - Hermes Quijada International

CURRENT METAR :
  • 020600Z 27025G37KT CAVOK 03/M01 Q0995

EXPIRED METARs :
  • 020500Z 27025G35KT CAVOK 03/02 Q0995
  • 020400Z 27018KT CAVOK 02/M00 Q0995

TAF TAF SAWE
Valid from the 02 at 06:00 until the 03 at 06:00 UTC


020500Z 0206/0306 27025G35KT CAVOK TX07/0218Z TNM02/0211Z
TEMPO 0206/0210 27025G45KT
BECMG 0219/0221 29015KT
BECMG 0303/0305 9999 SCT020 OVC090
SAVF FIR / South America



MET'MAP, your aeronautical weather chart ! - Copyright ORBIFLY December 2007 - Disclaimer

ORBIFLY MET'MAP TEAM :

Programming & Development : Alexandra Zaïnal
Concept & original design : Baudouin d'Aumeries
Assistance for programming : Marc-Olivier Méhu
Technical & hardware support : Manuel Goepfert

Contact : metmap@orbifly.com




SOURCES & CREDITS :

   NOAA       Earth
Advisory